Sanders, Arizona
Current Conditions -  °F | °C
As of 1:53 PM on Tuesday 27 Jan 2015 (Local Time) from KRQE Reporting Station
Broken Clouds Broken Clouds  
Wind Chill: 56°   Ceiling: 5000
Heat Index: 56°   Visibility: 10mi
Dew Point: 32°   Wind: 9mph
Humidity: 40%   Direction: 220°SW
Pressure: 30.31"   Gusts: 21mph
Location:  35.22°N, 109.34°W
Report Text: KRQE 272053Z AUTO 22008G18KT 10SM BKN050 13/00 A3031 RMK AO2 SLP223 T01330000 56020 TSNO
Loading
Personal Weather Stations






























Interactive Weather Map New forecast layout! Learn more

10-Day Weather Forecast

Advertisements
Track Severe Weather on mobile